Time;durP1;ratioP1;P1;durP2;ratioP2;P2;SDS_P1;SDS_P2;PMS_P1;PMS_P2;Temp;Humidity;BMP_temperature;BMP_pressure;BME280_temperature;BME280_humidity;BME280_pressure;Samples;Min_cycle;Max_cycle;Signal;HPM_P1;HPM_P2
2022/03/14 00:00:11;;;;;;;0.10;0.10;;;;;;;20.34;32.97;101346.09;5130240;27;20123;-32
2022/03/14 00:02:37;;;;;;;0.13;0.13;;;;;;;20.34;32.68;101356.34;5113761;27;20042;-29
2022/03/14 00:05:04;;;;;;;0.20;0.20;;;;;;;20.33;33.07;101352.72;5133646;27;20047;-28
2022/03/14 00:07:35;;;;;;;0.20;0.20;;;;;;;20.34;32.90;101364.63;5131200;27;20062;-29
2022/03/14 00:10:04;;;;;;;0.20;0.20;;;;;;;20.33;32.70;101363.78;5130021;27;20055;-30
2022/03/14 00:12:31;;;;;;;0.10;0.10;;;;;;;20.33;32.78;101358.25;5129610;27;20093;-29
2022/03/14 00:14:59;;;;;;;0.20;0.20;;;;;;;20.34;32.72;101359.94;5135501;27;20620;-30
2022/03/14 00:17:26;;;;;;;0.15;0.15;;;;;;;20.34;32.72;101357.16;5134150;27;20093;-34
2022/03/14 00:19:53;;;;;;;0.20;0.20;;;;;;;20.34;32.77;101357.16;5131717;27;20047;-30
2022/03/14 00:22:19;;;;;;;0.20;0.20;;;;;;;20.34;32.91;101353.56;5131851;27;20474;-30
2022/03/14 00:24:45;;;;;;;0.20;0.20;;;;;;;20.35;32.93;101352.47;5131373;27;20035;-30
2022/03/14 00:27:11;;;;;;;0.20;0.20;;;;;;;20.35;33.04;101358.81;5131438;27;20042;-29
2022/03/14 00:29:37;;;;;;;0.13;0.13;;;;;;;20.37;32.96;101375.13;5131234;27;20043;-31
2022/03/14 00:32:03;;;;;;;0.20;0.20;;;;;;;20.36;32.93;101377.06;5131027;27;20120;-31
2022/03/14 00:34:28;;;;;;;0.20;0.20;;;;;;;20.34;33.00;101379.28;5114357;27;20090;-29
2022/03/14 00:36:54;;;;;;;0.20;0.20;;;;;;;20.34;33.06;101384.81;5132078;27;20047;-30
2022/03/14 00:39:20;;;;;;;0.20;0.20;;;;;;;20.35;33.01;101380.13;5115108;27;20401;-34
2022/03/14 00:41:46;;;;;;;0.20;0.20;;;;;;;20.36;32.75;101384.53;5132128;27;20046;-33
2022/03/14 00:44:15;;;;;;;0.10;0.10;;;;;;;20.36;32.75;101384.53;5131479;27;20051;-32
2022/03/14 00:46:42;;;;;;;0.20;0.20;;;;;;;20.36;32.98;101390.06;5114258;27;20493;-31
2022/03/14 00:49:08;;;;;;;0.10;0.10;;;;;;;20.35;32.75;101389.25;5112681;27;20390;-29
2022/03/14 00:51:35;;;;;;;0.20;0.20;;;;;;;20.36;32.77;101387.31;5128979;27;20099;-32
2022/03/14 00:54:02;;;;;;;0.20;0.20;;;;;;;20.35;32.88;101391.19;5132571;27;20491;-31
2022/03/14 00:56:28;;;;;;;0.20;0.20;;;;;;;20.35;32.89;101397.53;5130951;27;20070;-30
2022/03/14 00:58:54;;;;;;;0.10;0.10;;;;;;;20.36;32.76;101403.91;5134291;27;20042;-29
2022/03/14 01:01:21;;;;;;;0.20;0.20;;;;;;;20.35;32.97;101407.78;5130101;27;20183;-29
2022/03/14 01:03:46;;;;;;;0.10;0.10;;;;;;;20.36;32.92;101410.25;5133271;27;20042;-29
2022/03/14 01:06:12;;;;;;;0.20;0.20;;;;;;;20.37;32.85;101416.63;5131778;27;20050;-31
2022/03/14 01:08:38;;;;;;;0.10;0.10;;;;;;;20.35;32.95;101422.44;5137007;27;20375;-29
2022/03/14 01:11:04;;;;;;;0.20;0.20;;;;;;;20.36;33.08;101426.03;5133992;27;20107;-31
2022/03/14 01:13:30;;;;;;;0.20;0.20;;;;;;;20.35;32.95;101425.19;5131005;27;20129;-30
2022/03/14 01:15:55;;;;;;;0.20;0.20;;;;;;;20.35;33.17;101430.72;5130855;27;20050;-30
2022/03/14 01:18:21;;;;;;;0.10;0.10;;;;;;;20.36;33.05;101426.03;5132583;27;20046;-31
2022/03/14 01:20:47;;;;;;;0.10;0.10;;;;;;;20.35;32.68;101433.50;5126715;27;20047;-30
2022/03/14 01:23:13;;;;;;;0.20;0.20;;;;;;;20.37;32.77;101433.22;5128929;27;20490;-32
2022/03/14 01:25:39;;;;;;;0.10;0.10;;;;;;;20.36;33.03;101426.03;5132194;27;20503;-30
2022/03/14 01:28:04;;;;;;;0.20;0.20;;;;;;;20.36;32.75;101424.09;5132115;27;20046;-29
2022/03/14 01:30:30;;;;;;;0.10;0.10;;;;;;;20.36;32.71;101426.84;5129165;27;20438;-29
2022/03/14 01:32:57;;;;;;;0.20;0.20;;;;;;;20.37;32.70;101430.44;5127310;27;20209;-29
2022/03/14 01:35:23;;;;;;;0.13;0.13;;;;;;;20.37;32.78;101430.44;5130727;27;20048;-31
2022/03/14 01:37:49;;;;;;;0.20;0.20;;;;;;;20.37;32.89;101434.03;5129555;27;20051;-29
2022/03/14 01:40:16;;;;;;;0.20;0.20;;;;;;;20.37;33.16;101444.28;5129583;27;20055;-32
2022/03/14 01:42:42;;;;;;;0.20;0.20;;;;;;;20.36;33.09;101451.75;5109788;27;20647;-30
2022/03/14 01:45:09;;;;;;;0.20;0.20;;;;;;;20.36;33.01;101450.91;5127972;27;20086;-30
2022/03/14 01:47:36;;;;;;;0.20;0.20;;;;;;;20.36;32.85;101453.69;5131576;27;20082;-32
2022/03/14 01:50:02;;;;;;;0.10;0.10;;;;;;;20.37;33.03;101455.34;5130531;27;20046;-29
2022/03/14 01:52:28;;;;;;;0.20;0.20;;;;;;;20.37;32.75;101458.94;5133105;27;20054;-30
2022/03/14 01:54:53;;;;;;;0.20;0.20;;;;;;;20.36;32.94;101460.03;5130869;27;21208;-30
2022/03/14 01:57:19;;;;;;;0.10;0.10;;;;;;;20.38;32.80;101468.06;5136199;27;20072;-29
2022/03/14 01:59:45;;;;;;;0.10;0.10;;;;;;;20.36;33.04;101465.59;5129787;27;20117;-29
2022/03/14 02:02:11;;;;;;;0.20;0.20;;;;;;;20.35;32.86;101469.47;5127397;27;20175;-30
2022/03/14 02:04:37;;;;;;;0.10;0.10;;;;;;;20.36;32.80;101468.34;5112439;27;20494;-31
2022/03/14 02:07:04;;;;;;;0.20;0.20;;;;;;;20.36;32.72;101473.06;5131494;27;20062;-32
2022/03/14 02:09:30;;;;;;;0.20;0.20;;;;;;;20.39;32.70;101483.56;5127775;27;20088;-31
2022/03/14 02:14:32;;;;;;;0.20;0.20;;;;;;;20.37;32.72;101478.28;5159335;27;20213;-29
2022/03/14 02:16:57;;;;;;;0.20;0.20;;;;;;;20.37;32.83;101481.06;5149635;27;20482;-29
2022/03/14 02:19:23;;;;;;;0.20;0.20;;;;;;;20.37;33.05;101483.84;5149634;27;20058;-32
2022/03/14 02:21:49;;;;;;;0.20;0.20;;;;;;;20.37;33.02;101483.00;5144045;27;20047;-29
2022/03/14 02:24:15;;;;;;;0.10;0.10;;;;;;;20.37;32.67;101480.25;5149376;27;20073;-29
2022/03/14 02:26:41;;;;;;;0.20;0.20;;;;;;;20.37;33.01;101483.00;5150197;27;20135;-32
2022/03/14 02:29:07;;;;;;;0.20;0.20;;;;;;;20.36;32.98;101493.25;5152665;27;20043;-29
2022/03/14 02:31:36;;;;;;;0.20;0.20;;;;;;;20.36;33.12;101498.78;5127523;27;20066;-29
2022/03/14 02:34:04;;;;;;;0.20;0.20;;;;;;;20.36;32.97;101497.94;5146843;27;20054;-30
2022/03/14 02:36:30;;;;;;;0.20;0.20;;;;;;;20.35;32.79;101491.59;5149118;27;20505;-29
2022/03/14 02:38:55;;;;;;;0.20;0.20;;;;;;;20.37;33.01;101503.19;5148142;27;20043;-31
2022/03/14 02:41:23;;;;;;;0.10;0.10;;;;;;;20.36;33.10;101496.00;5149697;27;20416;-30
2022/03/14 02:43:48;;;;;;;0.10;0.10;;;;;;;20.37;33.03;101496.84;5146943;27;20478;-29
2022/03/14 02:46:15;;;;;;;0.20;0.20;;;;;;;20.37;33.04;101505.13;5145571;27;20061;-30
2022/03/14 02:48:41;;;;;;;0.15;0.15;;;;;;;20.36;33.09;101509.84;5148802;27;20138;-29
2022/03/14 02:51:07;;;;;;;0.10;0.10;;;;;;;20.36;32.88;101511.78;5149519;27;20486;-31
2022/03/14 02:53:32;;;;;;;0.20;0.20;;;;;;;20.37;32.85;101522.56;5147592;27;20066;-29
2022/03/14 02:55:58;;;;;;;0.10;0.10;;;;;;;20.37;32.91;101524.50;5150943;27;20047;-30
2022/03/14 02:58:25;;;;;;;0.20;0.20;;;;;;;20.37;33.13;101528.09;5150681;27;20473;-31
2022/03/14 03:00:52;;;;;;;0.20;0.20;;;;;;;20.36;32.85;101534.75;5149256;27;20067;-31
2022/03/14 03:03:18;;;;;;;0.20;0.20;;;;;;;20.37;32.67;101533.63;5146677;27;20055;-29
2022/03/14 03:05:44;;;;;;;0.10;0.10;;;;;;;20.36;32.93;101539.44;5145579;27;20042;-29
2022/03/14 03:08:11;;;;;;;0.20;0.20;;;;;;;20.36;32.81;101540.28;5148264;27;20461;-29
2022/03/14 03:10:37;;;;;;;0.20;0.20;;;;;;;20.37;33.04;101547.47;5147534;27;20587;-32
2022/03/14 03:13:03;;;;;;;0.17;0.17;;;;;;;20.37;32.80;101552.16;5147856;27;20093;-30
2022/03/14 03:15:29;;;;;;;0.20;0.20;;;;;;;20.37;32.81;101549.41;5149426;27;20082;-30
2022/03/14 03:17:54;;;;;;;0.10;0.10;;;;;;;20.36;32.85;101561.56;5148359;27;20314;-35
2022/03/14 03:20:20;;;;;;;0.20;0.20;;;;;;;20.37;32.88;101571.53;5145060;27;20054;-29
2022/03/14 03:22:46;;;;;;;0.20;0.20;;;;;;;20.36;33.00;101575.41;5144176;27;20456;-29
2022/03/14 03:25:12;;;;;;;0.20;0.20;;;;;;;20.36;33.11;101575.41;5136634;27;20051;-29
2022/03/14 03:27:38;;;;;;;0.10;0.10;;;;;;;20.35;32.85;101580.09;5134596;27;20074;-30
2022/03/14 03:30:04;;;;;;;0.20;0.20;;;;;;;20.35;32.90;101574.56;5131857;27;20070;-29
2022/03/14 03:32:30;;;;;;;0.20;0.20;;;;;;;20.36;32.70;101586.47;5136374;27;20743;-29
2022/03/14 03:34:56;;;;;;;0.20;0.20;;;;;;;20.35;32.71;101588.41;5129392;27;20051;-32
2022/03/14 03:37:21;;;;;;;0.20;0.20;;;;;;;20.35;32.82;101585.63;5132072;27;20054;-29
2022/03/14 03:39:47;;;;;;;0.20;0.20;;;;;;;20.36;32.88;101594.75;5132895;27;20035;-34
2022/03/14 03:42:13;;;;;;;0.20;0.20;;;;;;;20.35;32.98;101598.66;5130710;27;20035;-30
2022/03/14 03:44:38;;;;;;;0.10;0.10;;;;;;;20.34;32.70;101602.53;5136730;27;20051;-29
2022/03/14 03:47:04;;;;;;;0.10;0.10;;;;;;;20.36;32.92;101605.84;5136000;27;20046;-31
2022/03/14 03:49:30;;;;;;;0.10;0.10;;;;;;;20.34;32.77;101608.06;5115808;27;20055;-29
2022/03/14 03:51:56;;;;;;;0.10;0.10;;;;;;;20.35;32.70;101612.47;5132087;27;20107;-31
2022/03/14 03:54:22;;;;;;;0.20;0.20;;;;;;;20.34;33.06;101617.19;5133855;27;20088;-33
2022/03/14 03:56:48;;;;;;;0.20;0.20;;;;;;;20.35;33.17;101620.78;5131793;27;20054;-34
2022/03/14 03:59:14;;;;;;;0.20;0.20;;;;;;;20.33;32.77;101621.03;5133064;27;20079;-37
2022/03/14 04:01:41;;;;;;;0.20;0.20;;;;;;;20.35;33.04;101623.53;5131415;27;20058;-33
2022/03/14 04:04:07;;;;;;;0.20;0.20;;;;;;;20.33;33.05;101629.31;5115145;27;20051;-31
2022/03/14 04:06:34;;;;;;;0.20;0.20;;;;;;;20.34;33.02;101635.72;5132614;27;20406;-33
2022/03/14 04:09:01;;;;;;;0.20;0.20;;;;;;;20.33;32.71;101639.56;5130735;27;20612;-29
2022/03/14 04:11:27;;;;;;;0.17;0.17;;;;;;;20.32;32.75;101646.19;5130126;27;20179;-31
2022/03/14 04:13:54;;;;;;;0.10;0.10;;;;;;;20.32;32.97;101644.25;5135325;27;20047;-32
2022/03/14 04:16:22;;;;;;;0.20;0.20;;;;;;;20.33;32.74;101650.63;5114653;27;20070;-31
2022/03/14 04:18:47;;;;;;;0.15;0.15;;;;;;;20.32;32.70;101638.72;5129332;27;20497;-30
2022/03/14 04:21:14;;;;;;;0.20;0.20;;;;;;;20.33;32.89;101647.88;5130718;27;21297;-29
2022/03/14 04:23:40;;;;;;;0.13;0.13;;;;;;;20.33;32.89;101653.41;5134375;27;20643;-31
2022/03/14 04:26:06;;;;;;;0.20;0.20;;;;;;;20.33;33.24;101657.00;5130401;27;21569;-30
2022/03/14 04:28:31;;;;;;;0.20;0.20;;;;;;;20.33;33.06;101667.22;5129516;27;20096;-31
2022/03/14 04:30:58;;;;;;;0.20;0.20;;;;;;;20.30;32.76;101663.91;5133454;27;20466;-32
2022/03/14 04:33:24;;;;;;;0.10;0.10;;;;;;;20.32;32.98;101668.34;5133514;27;20106;-31
2022/03/14 04:35:49;;;;;;;0.10;0.10;;;;;;;20.32;32.70;101668.34;5118370;27;20047;-31
2022/03/14 04:38:18;;;;;;;0.10;0.10;;;;;;;20.30;32.83;101672.22;5132717;27;20134;-31
2022/03/14 04:40:44;;;;;;;0.20;0.20;;;;;;;20.31;32.96;101664.75;5133399;27;20125;-31
2022/03/14 04:43:10;;;;;;;0.20;0.20;;;;;;;20.32;32.82;101684.94;5133986;27;20612;-32
2022/03/14 04:45:36;;;;;;;0.10;0.10;;;;;;;20.30;33.00;101688.81;5112479;27;20039;-29
2022/03/14 04:48:08;;;;;;;0.20;0.20;;;;;;;20.29;32.92;101689.91;5132201;27;20049;-30
2022/03/14 04:50:36;;;;;;;0.10;0.10;;;;;;;20.31;32.73;101695.16;5112282;27;20145;-30
2022/03/14 04:53:03;;;;;;;0.22;0.22;;;;;;;20.29;32.74;101698.22;5134628;27;20144;-31
2022/03/14 04:55:28;;;;;;;0.20;0.20;;;;;;;20.29;32.64;101698.22;5133176;27;20476;-29
2022/03/14 04:57:54;;;;;;;0.10;0.10;;;;;;;20.29;32.92;101703.75;5131133;27;20042;-29
2022/03/14 05:00:20;;;;;;;0.10;0.10;;;;;;;20.30;32.73;101704.56;5129963;27;20374;-31
2022/03/14 05:02:45;;;;;;;0.20;0.20;;;;;;;20.28;32.69;101704.81;5130553;27;20343;-37
2022/03/14 05:05:11;;;;;;;0.20;0.20;;;;;;;20.29;32.92;101714.81;5132264;27;20047;-31
2022/03/14 05:07:38;;;;;;;0.20;0.20;;;;;;;20.30;32.84;101710.09;5135016;27;20047;-33
2022/03/14 05:10:06;;;;;;;0.20;0.20;;;;;;;20.30;32.88;101718.41;5129327;27;20051;-29
2022/03/14 05:12:32;;;;;;;0.20;0.20;;;;;;;20.28;32.79;101724.19;5113366;27;20276;-31
2022/03/14 05:14:58;;;;;;;0.10;0.10;;;;;;;20.30;33.04;101721.16;5133138;27;20047;-33
2022/03/14 05:17:25;;;;;;;0.20;0.20;;;;;;;20.29;32.87;101725.00;5132927;27;20076;-29
2022/03/14 05:19:51;;;;;;;0.10;0.10;;;;;;;20.29;32.95;101730.53;5133282;27;20067;-29
2022/03/14 05:22:18;;;;;;;0.17;0.17;;;;;;;20.29;32.90;101736.94;5111297;27;21131;-28
2022/03/14 05:24:44;;;;;;;0.17;0.17;;;;;;;20.28;32.81;101743.56;5128828;27;20100;-32
2022/03/14 05:27:10;;;;;;;0.20;0.20;;;;;;;20.29;33.04;101739.72;5135049;27;20261;-30
2022/03/14 05:29:36;;;;;;;0.20;0.20;;;;;;;20.28;32.75;101746.31;5133333;27;20054;-33
2022/03/14 05:32:02;;;;;;;0.10;0.10;;;;;;;20.29;32.76;101749.91;5127894;27;20051;-32
2022/03/14 05:34:28;;;;;;;0.20;0.20;;;;;;;20.29;32.91;101744.38;5129554;27;20097;-29
2022/03/14 05:36:53;;;;;;;0.20;0.20;;;;;;;20.29;32.82;101761.84;5131855;27;20054;-29
2022/03/14 05:39:19;;;;;;;0.20;0.20;;;;;;;20.28;32.97;101757.38;5133137;27;20047;-31
2022/03/14 05:41:44;;;;;;;0.10;0.10;;;;;;;20.28;32.87;101757.38;5131184;27;20046;-33
2022/03/14 05:44:10;;;;;;;0.20;0.20;;;;;;;20.30;32.71;101773.72;5130579;27;20070;-31
2022/03/14 05:46:36;;;;;;;0.20;0.20;;;;;;;20.29;33.00;101774.81;5131265;27;20047;-32
2022/03/14 05:49:04;;;;;;;0.20;0.20;;;;;;;20.29;32.84;101769.28;5133600;27;20178;-31
2022/03/14 05:51:33;;;;;;;0.15;0.15;;;;;;;20.28;32.69;101778.69;5129848;27;20066;-32
2022/03/14 05:53:59;;;;;;;0.20;0.20;;;;;;;20.28;32.68;101779.50;5131552;27;20092;-31
2022/03/14 05:56:25;;;;;;;0.20;0.20;;;;;;;20.27;32.64;101782.56;5132760;27;20385;-29
2022/03/14 05:58:51;;;;;;;0.20;0.20;;;;;;;20.27;32.96;101788.91;5131710;27;20102;-28
2022/03/14 06:01:17;;;;;;;0.20;0.20;;;;;;;20.27;32.72;101788.09;5128295;27;20452;-28
2022/03/14 06:03:43;;;;;;;0.20;0.20;;;;;;;20.28;32.83;101789.75;5130354;27;20047;-28
2022/03/14 06:06:08;;;;;;;0.20;0.20;;;;;;;20.27;32.88;101796.38;5134770;27;20056;-28
2022/03/14 06:08:34;;;;;;;0.20;0.20;;;;;;;20.26;32.85;101797.50;5133352;27;20213;-28
2022/03/14 06:11:00;;;;;;;0.20;0.20;;;;;;;20.26;32.86;101798.31;5127996;27;20202;-30
2022/03/14 06:13:25;;;;;;;0.20;0.20;;;;;;;20.26;32.76;101805.78;5129215;27;20076;-30
2022/03/14 06:15:51;;;;;;;0.20;0.20;;;;;;;20.24;32.91;101808.81;5130794;27;20043;-30
2022/03/14 06:18:17;;;;;;;0.20;0.20;;;;;;;20.25;33.04;101801.34;5132103;27;20046;-28
2022/03/14 06:20:43;;;;;;;0.20;0.20;;;;;;;20.24;32.90;101803.28;5128680;27;20112;-29
2022/03/14 06:23:09;;;;;;;0.20;0.20;;;;;;;20.24;32.80;101806.03;5128885;27;20058;-28
2022/03/14 06:25:36;;;;;;;0.20;0.20;;;;;;;20.26;32.76;101819.63;5130838;27;20251;-29
2022/03/14 06:28:01;;;;;;;0.20;0.20;;;;;;;20.25;32.98;101818.78;5132056;27;20465;-30
2022/03/14 06:30:27;;;;;;;0.20;0.20;;;;;;;20.25;33.07;101815.16;5129761;27;20537;-31
2022/03/14 06:32:53;;;;;;;0.20;0.20;;;;;;;20.26;32.91;101819.63;5129297;27;20421;-32
2022/03/14 06:35:19;;;;;;;0.20;0.20;;;;;;;20.26;33.18;101814.09;5128490;27;20035;-31
2022/03/14 06:37:45;;;;;;;0.10;0.10;;;;;;;20.26;32.91;101817.69;5110853;27;20043;-34
2022/03/14 06:40:11;;;;;;;0.20;0.20;;;;;;;20.24;32.96;101825.41;5129900;27;20057;-31
2022/03/14 06:42:38;;;;;;;0.20;0.20;;;;;;;20.25;32.94;101824.31;5130173;27;20531;-35
2022/03/14 06:45:04;;;;;;;0.20;0.20;;;;;;;20.25;33.18;101834.53;5128237;27;21314;-32
2022/03/14 06:47:32;;;;;;;0.15;0.15;;;;;;;20.25;33.01;101835.38;5127259;27;20058;-32
2022/03/14 06:49:58;;;;;;;0.10;0.10;;;;;;;20.25;32.89;101837.28;5128812;27;20089;-31
2022/03/14 06:52:23;;;;;;;0.20;0.20;;;;;;;20.24;33.08;101839.22;5131052;27;20047;-34
2022/03/14 06:54:49;;;;;;;0.20;0.20;;;;;;;20.25;33.07;101845.59;5128356;27;20124;-30
2022/03/14 06:57:15;;;;;;;0.20;0.20;;;;;;;20.24;33.00;101846.69;5128094;27;20046;-31
2022/03/14 06:59:40;;;;;;;0.20;0.20;;;;;;;20.24;33.03;101843.94;5128510;27;20054;-32
2022/03/14 07:02:07;;;;;;;0.13;0.13;;;;;;;20.26;32.91;101852.81;5126409;27;20130;-32
2022/03/14 07:04:34;;;;;;;0.20;0.20;;;;;;;20.26;32.92;101858.34;5123953;27;20047;-33
2022/03/14 07:07:03;;;;;;;0.20;0.20;;;;;;;20.25;32.85;101860.28;5126448;27;20078;-29
2022/03/14 07:09:30;;;;;;;0.20;0.20;;;;;;;20.23;32.87;101870.75;5125678;27;20077;-30
2022/03/14 07:11:56;;;;;;;0.20;0.20;;;;;;;20.24;32.86;101871.59;5122079;27;20036;-30
2022/03/14 07:14:22;;;;;;;0.20;0.20;;;;;;;20.24;32.88;101874.34;5122828;27;20054;-31
2022/03/14 07:16:48;;;;;;;0.20;0.20;;;;;;;20.23;33.13;101890.13;5114949;27;20040;-31
2022/03/14 07:19:15;;;;;;;0.10;0.10;;;;;;;20.25;33.14;101893.47;5123370;27;20085;-31
2022/03/14 07:21:40;;;;;;;0.10;0.10;;;;;;;20.25;33.10;101884.31;5116281;27;20124;-31
2022/03/14 07:24:06;;;;;;;0.20;0.20;;;;;;;20.24;33.13;101894.56;5120413;27;20055;-35
2022/03/14 07:26:32;;;;;;;0.20;0.20;;;;;;;20.26;33.18;101894.31;5102170;27;20053;-33
2022/03/14 07:28:57;;;;;;;0.10;0.10;;;;;;;20.26;33.19;101905.38;5122081;27;20054;-31
2022/03/14 07:31:24;;;;;;;0.10;0.10;;;;;;;20.24;33.10;101902.84;5114499;27;20047;-34
2022/03/14 07:33:50;;;;;;;0.20;0.20;;;;;;;20.23;33.09;101906.72;5120734;27;20046;-30
2022/03/14 07:36:17;;;;;;;0.20;0.20;;;;;;;20.24;33.21;101905.63;5100966;27;20043;-31
2022/03/14 07:38:43;;;;;;;0.20;0.20;;;;;;;20.30;33.85;101907.34;5115692;27;20079;-43
2022/03/14 07:41:09;;;;;;;0.20;0.20;;;;;;;20.34;33.81;101913.19;5119436;27;20040;-37
2022/03/14 07:43:35;;;;;;;0.20;0.20;;;;;;;20.35;33.86;101920.38;5116446;27;20149;-32
2022/03/14 07:46:01;;;;;;;0.20;0.20;;;;;;;20.34;33.44;101923.41;5121999;27;20055;-35
2022/03/14 07:48:27;;;;;;;0.20;0.20;;;;;;;20.31;33.73;101933.06;5119757;27;20058;-35
2022/03/14 07:50:53;;;;;;;0.20;0.20;;;;;;;20.35;34.52;101938.91;5121916;27;20073;-40
2022/03/14 07:53:19;;;;;;;0.15;0.15;;;;;;;20.39;33.94;101942.81;5126290;27;20831;-32
2022/03/14 07:55:45;;;;;;;0.20;0.20;;;;;;;20.40;33.88;101953.59;5130437;27;20131;-34
2022/03/14 07:58:11;;;;;;;0.20;0.20;;;;;;;20.39;33.71;101953.88;5120039;27;20055;-33
2022/03/14 08:00:36;;;;;;;0.20;0.20;;;;;;;20.38;33.82;101957.72;5118722;27;20143;-37
2022/03/14 08:03:02;;;;;;;0.20;0.20;;;;;;;20.39;33.86;101967.72;5122306;27;20047;-38
2022/03/14 08:05:28;;;;;;;0.17;0.17;;;;;;;20.40;33.61;101966.63;5117015;27;20051;-35
2022/03/14 08:07:54;;;;;;;0.20;0.20;;;;;;;20.35;35.43;101974.88;5120275;27;20047;-35
2022/03/14 08:10:20;;;;;;;0.20;0.20;;;;;;;20.43;35.13;101980.75;5120149;27;20043;-36
2022/03/14 08:12:49;;;;;;;0.20;0.20;;;;;;;20.46;34.42;101982.97;5102040;27;20055;-32
2022/03/14 08:15:22;;;;;;;0.20;0.20;;;;;;;20.46;34.55;101974.66;5109581;27;20121;-35
2022/03/14 08:17:49;;;;;;;0.15;0.15;;;;;;;20.47;34.40;101981.91;5114897;27;20184;-35
2022/03/14 08:20:16;;;;;;;0.20;0.20;;;;;;;20.30;35.97;101982.03;5095164;27;20079;-34
2022/03/14 08:22:41;;;;;;;0.10;0.10;;;;;;;20.43;35.60;101983.53;5115314;27;20115;-34
2022/03/14 08:25:08;;;;;;;0.20;0.20;;;;;;;20.50;35.18;101995.22;5094140;27;20124;-32
2022/03/14 08:27:34;;;;;;;0.20;0.20;;;;;;;20.52;34.88;101995.81;5117234;27;20045;-34
2022/03/14 08:29:59;;;;;;;0.10;0.10;;;;;;;20.54;34.52;101996.34;5112772;27;20043;-33
2022/03/14 08:32:25;;;;;;;0.20;0.20;;;;;;;20.57;34.53;101996.94;5105953;27;20096;-35
2022/03/14 08:34:53;;;;;;;0.10;0.10;;;;;;;20.57;34.68;101994.19;5101629;27;20063;-32
2022/03/14 08:37:19;;;;;;;0.10;0.10;;;;;;;20.58;34.62;102002.22;5104412;27;20164;-38
2022/03/14 08:39:47;;;;;;;0.20;0.20;;;;;;;20.60;34.45;102001.97;5114017;27;20781;-33
2022/03/14 08:42:13;;;;;;;0.20;0.20;;;;;;;20.61;34.50;102007.22;5117223;27;20264;-34
2022/03/14 08:44:38;;;;;;;0.20;0.20;;;;;;;20.62;34.47;102016.34;5104294;27;20089;-33
2022/03/14 08:47:04;;;;;;;0.20;0.20;;;;;;;20.64;34.24;102016.91;5113616;27;20294;-34
2022/03/14 08:49:30;;;;;;;0.20;0.20;;;;;;;20.64;34.14;102020.53;5111241;27;20050;-33
2022/03/14 08:51:56;;;;;;;0.20;0.20;;;;;;;20.65;34.24;102026.91;5115714;27;20918;-34
2022/03/14 08:54:21;;;;;;;0.20;0.20;;;;;;;20.67;33.91;102033.00;5112301;27;20055;-32
2022/03/14 08:56:47;;;;;;;0.20;0.20;;;;;;;20.66;34.24;102023.03;5110873;27;20463;-32
2022/03/14 08:59:13;;;;;;;0.20;0.20;;;;;;;20.67;34.14;102033.00;5102948;27;21289;-37
2022/03/14 09:01:39;;;;;;;0.20;0.20;;;;;;;20.67;34.04;102033.81;5112457;27;20043;-34
2022/03/14 09:04:05;;;;;;;0.20;0.20;;;;;;;20.69;34.09;102034.41;5114669;27;20489;-33
2022/03/14 09:06:35;;;;;;;0.20;0.20;;;;;;;20.70;34.06;102038.00;5119186;27;20054;-33
2022/03/14 09:09:01;;;;;;;0.20;0.20;;;;;;;20.70;34.06;102036.06;5116136;27;20109;-32
2022/03/14 09:11:26;;;;;;;0.20;0.20;;;;;;;20.72;34.10;102035.81;5120823;27;20504;-32
2022/03/14 09:13:52;;;;;;;0.20;0.20;;;;;;;20.67;34.64;102047.66;5098626;27;20063;-32
2022/03/14 09:16:19;;;;;;;0.20;0.20;;;;;;;20.76;34.27;102050.78;5109868;27;20050;-33
2022/03/14 09:18:46;;;;;;;0.20;0.20;;;;;;;20.73;34.68;102049.41;5116638;27;20829;-33
2022/03/14 09:21:14;;;;;;;0.20;0.20;;;;;;;20.83;34.68;102062.47;5118483;27;20089;-34
2022/03/14 09:23:42;;;;;;;0.20;0.20;;;;;;;20.84;34.46;102063.31;5120355;27;20051;-32
2022/03/14 09:26:08;;;;;;;0.20;0.20;;;;;;;20.83;34.16;102068.03;5115268;27;20102;-33
2022/03/14 09:28:36;;;;;;;0.20;0.20;;;;;;;20.82;34.36;102071.91;5119073;27;20043;-34
2022/03/14 09:31:03;;;;;;;0.15;0.15;;;;;;;20.83;34.07;102076.31;5114352;27;20035;-35
2022/03/14 09:33:29;;;;;;;0.20;0.20;;;;;;;20.84;34.18;102075.22;5122590;27;20039;-31
2022/03/14 09:35:54;;;;;;;0.20;0.20;;;;;;;20.84;34.24;102077.97;5119380;27;20050;-31
2022/03/14 09:38:20;;;;;;;0.20;0.20;;;;;;;20.85;34.27;102087.97;5108282;27;20128;-32
2022/03/14 09:40:49;;;;;;;0.20;0.20;;;;;;;20.86;34.12;102089.66;5104949;27;20050;-35
2022/03/14 09:43:19;;;;;;;0.10;0.10;;;;;;;20.86;34.04;102088.81;5114129;27;20051;-32
2022/03/14 09:45:47;;;;;;;0.13;0.13;;;;;;;20.86;34.33;102095.19;5080471;27;20150;-32
2022/03/14 09:48:14;;;;;;;;;;;;;;;20.88;34.06;102100.44;5105683;27;20055;-31
2022/03/14 09:50:41;;;;;;;0.10;0.10;;;;;;;20.88;34.04;102106.81;5102699;27;20349;-32
2022/03/14 09:53:09;;;;;;;0.10;0.10;;;;;;;20.90;33.92;102106.56;5108110;27;20318;-35
2022/03/14 09:55:41;;;;;;;0.20;0.20;;;;;;;20.91;34.17;102113.78;5112303;27;20334;-35
2022/03/14 09:58:12;;;;;;;0.10;0.10;;;;;;;20.91;33.87;102116.53;5105671;27;20078;-37
2022/03/14 10:00:38;;;;;;;0.10;0.10;;;;;;;20.92;34.12;102115.44;5086183;27;20043;-36
2022/03/14 10:03:10;;;;;;;0.20;0.20;;;;;;;20.92;34.00;102119.03;5101874;27;20478;-36
2022/03/14 10:05:36;;;;;;;0.20;0.20;;;;;;;20.93;33.89;102117.94;5106768;27;20501;-33
2022/03/14 10:08:02;;;;;;;0.20;0.20;;;;;;;20.94;33.91;102121.53;5109009;27;20051;-34
2022/03/14 10:10:29;;;;;;;0.20;0.20;;;;;;;20.95;33.75;102126.81;5114828;27;20043;-33
2022/03/14 10:12:57;;;;;;;0.20;0.20;;;;;;;20.95;33.85;102128.75;5109325;27;20178;-35
2022/03/14 10:15:23;;;;;;;;;;;;;;;20.95;33.99;102123.22;5113312;27;20058;-36
2022/03/14 10:17:51;;;;;;;0.15;0.15;;;;;;;20.96;33.86;102124.88;5105335;27;20439;-33
2022/03/14 10:20:17;;;;;;;0.20;0.20;;;;;;;20.97;34.00;102132.09;5107848;27;20411;-34
2022/03/14 10:22:44;;;;;;;0.20;0.20;;;;;;;20.97;34.04;102140.41;5107169;27;20040;-34
2022/03/14 10:25:13;;;;;;;0.20;0.20;;;;;;;20.98;33.98;102144.84;5108104;27;20066;-33
2022/03/14 10:27:44;;;;;;;0.20;0.20;;;;;;;20.98;33.78;102148.47;5096671;27;20516;-34
2022/03/14 10:30:29;;;;;;;0.20;0.20;;;;;;;20.97;33.77;102149.53;5114602;27;20063;-34
2022/03/14 10:35:44;;;;;;;0.10;0.10;;;;;;;20.98;33.61;102155.91;5144580;27;20148;-31
2022/03/14 10:38:12;;;;;;;0.20;0.20;;;;;;;20.98;33.79;102159.53;5111034;27;20071;-31
2022/03/14 10:40:43;;;;;;;0.20;0.20;;;;;;;20.98;33.61;102162.31;5120009;27;20043;-31
2022/03/14 10:43:29;;;;;;;0.20;0.20;;;;;;;20.98;33.73;102161.44;5098797;27;20105;-34
2022/03/14 10:45:55;;;;;;;0.10;0.10;;;;;;;20.98;33.82;102175.28;5114971;27;20502;-35
2022/03/14 10:48:43;;;;;;;0.20;0.20;;;;;;;20.98;33.85;102169.75;5125704;27;20039;-31
2022/03/14 10:51:11;;;;;;;0.20;0.20;;;;;;;20.96;34.09;102172.81;5091267;27;20133;-33
2022/03/14 10:53:42;;;;;;;0.13;0.13;;;;;;;20.96;33.92;102175.56;5120197;27;20605;-33
2022/03/14 10:56:08;;;;;;;0.20;0.20;;;;;;;20.96;34.13;102177.50;5113770;27;20075;-34
2022/03/14 10:58:34;;;;;;;0.15;0.15;;;;;;;20.96;33.85;102172.81;5118488;27;20054;-32
2022/03/14 11:01:02;;;;;;;0.10;0.10;;;;;;;20.95;34.01;102176.69;5121751;27;20086;-31
2022/03/14 11:03:31;;;;;;;0.20;0.20;;;;;;;20.96;34.19;102175.56;5120803;27;20397;-33
2022/03/14 11:06:14;;;;;;;0.20;0.20;;;;;;;20.94;34.12;102175.00;5128745;27;20042;-31
2022/03/14 11:08:43;;;;;;;0.20;0.20;;;;;;;20.94;33.93;102175.00;5128356;27;20047;-37
2022/03/14 11:11:12;;;;;;;0.20;0.20;;;;;;;20.94;34.27;102172.25;5123268;27;20046;-35
2022/03/14 11:13:41;;;;;;;0.10;0.10;;;;;;;20.93;34.00;102167.78;5116591;27;20273;-34
2022/03/14 11:18:59;;;;;;;0.20;0.20;;;;;;;20.93;34.21;102172.47;5142418;27;20209;-32
2022/03/14 11:21:31;;;;;;;0.15;0.15;;;;;;;20.92;34.15;102171.66;5117472;27;20043;-33
2022/03/14 11:23:58;;;;;;;0.10;0.10;;;;;;;20.92;34.09;102174.41;5115135;27;20074;-34
2022/03/14 11:26:25;;;;;;;0.10;0.10;;;;;;;20.91;34.06;102172.75;5118146;27;20223;-36
2022/03/14 11:28:53;;;;;;;0.10;0.10;;;;;;;20.91;34.02;102186.59;5110607;27;20105;-35
2022/03/14 11:31:20;;;;;;;0.20;0.20;;;;;;;20.91;33.83;102181.06;5122837;27;20077;-34